• Join FlightAware (Why Join?)
  • Login
  • US Flag 
03:30PM EDT


 

Airport Tracker/Info


-or-


 

Live Flight TrackerFlight Track Log ✈ EJA829P ✈ 28-Mar-2014 ✈ KRSW - KHPN

Flight Track Log - Related Links

Times and Time Zones

All times are in EDT time to prevent confusion due to time zone crossing. See the EJA829P flight status page for this flight to view local times or setup timezone preferences in your user account.

Time Position Orientation Groundspeed Altitude Reporting Facility
EDT Latitude Longitude Course Direction KTS MPH feet Rate Location/Type
01:04PM 26.6283 -81.7108 346° North 239 275 6,800  Level Miami Center
01:05PM 26.6928 -81.7181 354° North 239 275 10,200 3,120 Climbing Miami Center
01:06PM 26.7761 -81.7239 356° North 252 290 13,100 2,700 Climbing Miami Center
01:07PM 26.8594 -81.7319 355° North 281 323 15,700 2,400 Climbing Miami Center
01:08PM 27.2271 -81.8077 346° North  Level FlightAware Approximate
01:08PM 26.9469 -81.7381 356° North 297 342 18,000  Level Miami Center
01:09PM 27.0217 -81.7481 353° North 290 334 20,600 2,520 Climbing Miami Center
01:10PM 27.0919 -81.7697 345° North 284 327 23,100 2,700 Climbing Miami Center
01:11PM 27.1725 -81.7942 345° North 278 320 26,000 2,040 Climbing Miami Center
01:12PM 27.2486 -81.8208 343° North 284 327 27,300 1,200 Climbing Miami Center
01:13PM 27.3311 -81.8500 343° North 298 343 28,500 1,260 Climbing Miami Center
01:14PM 27.4097 -81.8769 343° North 318 366 29,800 1,260 Climbing Miami Center
01:15PM 27.5078 -81.8742 North 350 403 31,100 1,080 Climbing Miami Center
01:16PM 27.6203 -81.8181 24° Northeast 371 427 32,000 840 Climbing Miami Center
01:17PM 27.7264 -81.7642 24° Northeast 404 465 32,800 480 Climbing Miami Center
01:18PM 27.8444 -81.7339 13° North 418 481 33,000 60 Climbing Miami Center
01:19PM 27.9614 -81.7272 North 418 481 33,000  Level Miami Center
01:20PM 28.0808 -81.7158 North 429 494 33,000  Level Miami Center
01:21PM 28.2022 -81.7047 North 429 494 33,100 480 Climbing Miami Center
01:21PM 28.2758 -81.6978 North 427 491 33,800 1,080 Climbing Jacksonville Center
01:22PM 28.3906 -81.6869 North 432 497 34,900 1,080 Climbing Jacksonville Center
01:23PM 28.5031 -81.6761 North 420 483 36,000 1,080 Climbing Jacksonville Center
01:24PM 28.6158 -81.6675 North 408 470 37,100 1,080 Climbing Jacksonville Center
01:25PM 28.7261 -81.6592 North 403 464 38,200 1,080 Climbing Jacksonville Center
01:26PM 28.8325 -81.6483 North 398 458 39,300 900 Climbing Jacksonville Center
01:27PM 28.9369 -81.6400 North 385 443 40,100 600 Climbing Jacksonville Center
01:28PM 29.0328 -81.6339 North 380 437 40,600 480 Climbing Jacksonville Center
01:29PM 29.1414 -81.6253 North 380 437 41,100 240 Climbing Jacksonville Center
01:30PM 29.2497 -81.6144 North 385 443 41,100 -60 Level Jacksonville Center
01:31PM 29.3603 -81.6036 North 391 450 41,000 -60 Descending Jacksonville Center
01:32PM 29.4747 -81.5806 10° North 397 457 41,000  Level Jacksonville Center
01:33PM 29.5894 -81.5550 11° North 410 472 41,000  Level Jacksonville Center
01:34PM 29.7058 -81.5272 12° North 415 478 41,000  Level Jacksonville Center
01:35PM 29.8372 -81.5014 10° North 420 483 41,000  Level Jacksonville Center
01:36PM 29.9517 -81.4758 11° North 425 489 41,000  Level Jacksonville Center
01:37PM 30.0683 -81.4500 11° North 425 489 41,000  Level Jacksonville Center
01:38PM 30.1869 -81.4244 11° North 430 495 41,000  Level Jacksonville Center
01:39PM 30.3058 -81.3983 11° North 430 495 41,000  Level Jacksonville Center
01:40PM 30.4225 -81.3725 11° North 430 495 41,000  Level Jacksonville Center
01:41PM 30.5411 -81.3489 10° North 430 495 41,000  Level Jacksonville Center
01:42PM 30.6597 -81.3228 11° North 430 495 41,000  Level Jacksonville Center
01:43PM 30.7786 -81.2967 11° North 430 495 41,000  Level Jacksonville Center
01:44PM 30.8950 -81.2706 11° North 430 495 41,000  Level Jacksonville Center
01:45PM 31.0139 -81.2467 10° North 430 495 41,000  Level Jacksonville Center
01:46PM 31.1303 -81.2181 12° North 423 487 41,000  Level Jacksonville Center
01:47PM 31.2469 -81.1939 10° North 429 494 41,000  Level Jacksonville Center
01:48PM 31.3611 -81.1506 18° North 429 494 41,000  Level Jacksonville Center
01:49PM 31.4583 -81.0806 32° Northeast 442 509 41,000  Level Jacksonville Center
01:50PM 31.5803 -80.9978 30° Northeast 452 520 41,000  Level Jacksonville Center
01:51PM 31.6878 -80.9197 32° Northeast 452 520 41,000  Level Jacksonville Center
01:52PM 31.7825 -80.8494 32° Northeast 452 520 41,000  Level Jacksonville Center
01:53PM 31.9044 -80.7636 31° Northeast 452 520 41,000  Level Jacksonville Center
01:54PM 31.9992 -80.6950 32° Northeast 452 520 41,000  Level Jacksonville Center
01:55PM 32.1147 -80.6114 31° Northeast 444 511 41,000  Level Jacksonville Center
01:56PM 32.2175 -80.5328 33° Northeast 444 511 41,000  Level Jacksonville Center
01:57PM 32.3228 -80.4589 31° Northeast 444 511 41,000  Level Jacksonville Center
01:58PM 32.4297 -80.3822 31° Northeast 438 504 41,000  Level Jacksonville Center
01:59PM 32.5347 -80.3053 32° Northeast 438 504 41,000  Level Jacksonville Center
02:00PM 32.6394 -80.2283 32° Northeast 438 504 41,000  Level Jacksonville Center
02:01PM 32.7422 -80.1486 33° Northeast 438 504 41,000  Level Jacksonville Center
02:02PM 32.8469 -80.0739 31° Northeast 438 504 41,000  Level Jacksonville Center
02:03PM 32.9517 -79.9939 33° Northeast 433 498 41,000  Level Jacksonville Center
02:04PM 33.0461 -79.9264 31° Northeast 440 506 41,000  Level Jacksonville Center
02:05PM 33.1508 -79.8508 31° Northeast 440 506 41,000  Level Jacksonville Center
02:06PM 33.2533 -79.7753 32° Northeast 440 506 41,000  Level Jacksonville Center
02:07PM 33.3578 -79.6994 31° Northeast 440 506 41,000  Level Jacksonville Center
02:08PM 33.4581 -79.6264 31° Northeast 435 501 41,000  Level Jacksonville Center
02:09PM 33.5606 -79.5503 32° Northeast 435 501 41,000  Level Jacksonville Center
02:10PM 33.6628 -79.4739 32° Northeast 435 501 41,000 240 Level Jacksonville Center
02:11PM 33.7569 -79.4078 30° Northeast 417 480 41,500 420 Climbing Jacksonville Center
02:12PM 33.8572 -79.3314 32° Northeast 408 470 41,900 360 Climbing Jacksonville Center
02:13PM 33.9572 -79.2597 31° Northeast 408 470 42,300 360 Climbing Jacksonville Center
02:14PM 34.0553 -79.1856 32° Northeast 408 470 42,700 360 Climbing Jacksonville Center
02:15PM 34.1511 -79.1136 32° Northeast 408 470 43,100 180 Climbing Jacksonville Center
02:16PM 34.2425 -79.0319 36° Northeast 408 470 43,100 -480 Level Jacksonville Center
02:17PM 34.2883 -78.8967 68° East 401 461 42,200 -660 Descending Jacksonville Center
02:20PM 34.3808 -78.5789 70° East 444 511 41,000 -420 Descending Washington Center
02:21PM 34.4728 -78.4839 40° Northeast 429 494 41,000  Level Washington Center
02:22PM 34.5647 -78.3914 40° Northeast 423 487 41,000  Level Washington Center
02:23PM 34.6586 -78.3011 38° Northeast 423 487 41,000  Level Washington Center
02:24PM 34.7483 -78.2081 40° Northeast 423 487 41,000  Level Washington Center
02:25PM 34.8317 -78.1147 43° Northeast 418 481 41,000  Level Washington Center
02:26PM 34.9192 -78.0211 41° Northeast 413 475 41,000  Level Washington Center
02:27PM 35.0044 -77.9350 40° Northeast 402 463 41,000 960 Level Washington Center
02:28PM 35.0894 -77.8486 40° Northeast 402 463 43,000 540 Climbing Washington Center
02:29PM 35.1767 -77.7544 41° Northeast 408 470 42,100 -300 Descending Washington Center
02:30PM 35.2658 -77.6653 39° Northeast 408 470 42,400 360 Climbing Washington Center
02:31PM 35.3550 -77.5758 39° Northeast 408 470 42,900 300 Climbing Washington Center
02:32PM 35.4483 -77.4917 36° Northeast 408 470 43,000  Climbing Washington Center
02:33PM 35.5433 -77.4094 35° Northeast 413 475 43,000  Level Washington Center
02:34PM 35.6386 -77.3247 36° Northeast 413 475 43,000  Level Washington Center
02:35PM 35.7336 -77.2400 36° Northeast 413 475 43,000  Level Washington Center
02:36PM 35.8267 -77.1572 36° Northeast 413 475 43,000  Level Washington Center
02:37PM 35.9194 -77.0769 35° Northeast 413 475 43,000  Level Washington Center
02:38PM 36.0144 -76.9889 37° Northeast 418 481 43,000  Level Washington Center
02:39PM 36.1114 -76.9058 35° Northeast 418 481 43,000  Level Washington Center
02:40PM 36.2039 -76.8225 36° Northeast 418 481 43,000  Level Washington Center
02:41PM 36.2986 -76.7389 35° Northeast 418 481 43,000  Level Washington Center
02:42PM 36.3933 -76.6550 35° Northeast 418 481 43,000  Level Washington Center
02:43PM 36.4881 -76.5686 36° Northeast 418 481 43,000  Level Washington Center
02:44PM 36.5825 -76.4844 36° Northeast 418 481 43,000  Level Washington Center
02:45PM 36.6769 -76.4000 36° Northeast 418 481 43,000  Level Washington Center
02:46PM 36.7797 -76.3000 38° Northeast 418 481 43,000  Level Washington Center
02:47PM 36.8742 -76.2150 36° Northeast 418 481 43,000  Level Washington Center
02:48PM 36.9789 -76.1508 26° Northeast 411 473 43,000  Level Washington Center
02:49PM 37.0811 -76.1072 19° North 411 473 43,000 -180 Level Washington Center
02:50PM 37.1878 -76.0508 23° Northeast 406 467 42,700 -600 Descending Washington Center
02:51PM 37.2986 -75.9886 24° Northeast 406 467 41,900 -900 Descending Washington Center
02:52PM 37.4011 -75.9344 23° Northeast 395 455 41,000 -480 Descending Washington Center
02:53PM 37.4992 -75.8825 23° Northeast 390 449 41,000  Level Washington Center
02:54PM 37.5953 -75.8197 27° Northeast 385 443 41,000  Level Washington Center
02:55PM 37.6872 -75.7492 31° Northeast 385 443 41,000  Level Washington Center
02:56PM 37.7853 -75.6758 31° Northeast 391 450 41,000 -60 Level Washington Center
02:57PM 37.8853 -75.6022 30° Northeast 403 464 40,900  Descending Washington Center
02:58PM 37.9833 -75.5286 31° Northeast 403 464 41,000 -360 Climbing Washington Center
02:59PM 38.0750 -75.4572 32° Northeast 398 458 40,200 -840 Descending Washington Center
03:00PM 38.1647 -75.4042 25° Northeast 377 434 39,400 -600 Descending Washington Center
03:01PM 38.2542 -75.3458 27° Northeast 361 415 39,000 -240 Descending Washington Center
03:02PM 38.3417 -75.2872 28° Northeast 356 410 39,000  Level Washington Center
03:03PM 38.4333 -75.2286 27° Northeast 351 404 39,000  Level Washington Center
03:04PM 38.5331 -75.1644 27° Northeast 371 427 39,000  Level Washington Center
03:05PM 38.6411 -75.0947 27° Northeast 401 461 39,000  Level Washington Center
03:06PM 38.7533 -75.0219 27° Northeast 427 491 39,000  Level Washington Center
03:07PM 38.8594 -74.9544 26° Northeast 427 491 39,000 -120 Level Washington Center
03:08PM 38.9675 -74.8867 26° Northeast 427 491 38,800 -1,260 Descending Washington Center
03:09PM 39.0753 -74.8164 27° Northeast 427 491 36,600 -2,340 Descending Washington Center
03:10PM 39.1789 -74.7186 36° Northeast 434 499 34,200 -2,460 Descending Washington Center
03:11PM 39.3572 -74.5325 39° Northeast 450 518 29,700 -2,520 Descending New York Center
03:12PM 39.4567 -74.4275 39° Northeast 445 512 27,200 -2,580 Descending New York Center
03:13PM 39.5622 -74.3172 39° Northeast 439 505 24,600 -1,800 Descending New York Center
03:14PM 39.6439 -74.2297 40° Northeast 433 498 23,700 -960 Descending New York Center
03:15PM 39.7256 -74.1447 39° Northeast 405 466 22,700 -1,020 Descending New York Center
03:16PM 39.8050 -74.0622 39° Northeast 372 428 21,700 -1,080 Descending New York Center
03:17PM 39.8933 -73.9661 40° Northeast 384 442 20,600 -1,440 Descending New York Center
03:20PM 40.0928 -73.7500 40° Northeast 395 455 17,000 -1,140 Descending Boston Center
03:21PM 40.1692 -73.6689 39° Northeast 365 420 17,000  Level Boston Center
03:22PM 40.2597 -73.5722 39° Northeast 409 471 17,100  Climbing Boston Center
03:23PM 40.3494 -73.4750 40° Northeast 418 481 17,100  Level Boston Center
03:24PM 40.4544 -73.4261 20° North 403 464 17,100  Level Boston Center
03:25PM 40.5614 -73.3892 15° North 399 459 17,100  Level Boston Center
03:26PM 40.6669 -73.3511 15° North 396 456 17,100 -960 Level Boston Center
03:27PM 40.7833 -73.3000 18° North 404 465 15,200 -1,800 Descending New York TRACON
03:28PM 40.8500 -73.1833 53° Northeast 354 407 13,500 -1,620 Descending New York TRACON
03:29PM 40.9000 -73.0833 56° Northeast 343 395 11,900 -1,380 Descending New York TRACON
03:30PM 40.9667 -73.0333 30° Northeast 330 380 10,800 -1,680 Descending New York TRACON
03:31PM 41.0500 -73.0500 351° North 268 308 8,600 -2,100 Descending New York TRACON
03:32PM 41.0833 -73.1167 304° West 236 272 6,600 -2,160 Descending New York TRACON
03:33PM 41.1000 -73.1833 288° West 233 268 4,500 -1,260 Descending New York TRACON
03:34PM 41.1333 -73.2667 298° West 233 268 4,100 -240 Descending New York TRACON
03:35PM 41.1500 -73.3500 285° West 234 269 4,100  Level New York TRACON
03:36PM 41.1667 -73.4333 285° West 234 269 4,100  Level New York TRACON
03:37PM 41.1833 -73.5000 288° West 198 228 4,100  Level New York TRACON
03:38PM 41.2000 -73.5667 288° West 161 185 4,100  Level New York TRACON
03:39PM 41.2167 -73.6167 294° West 164 189 4,100 -60 Level New York TRACON
03:40PM 41.2333 -73.6667 294° West 178 205 4,000 -540 Descending New York TRACON
03:41PM 41.3000 -73.7000 339° North 201 231 3,100 -480 Descending New York TRACON
03:42PM 41.3500 -73.7167 346° North 212 244 3,100 -60 Level New York TRACON
03:43PM 41.3833 -73.7667 312° West 207 238 3,000  Descending New York TRACON
03:44PM 41.3667 -73.8000 236° Southwest 136 157 3,100  Climbing New York TRACON
03:45PM 41.3500 -73.8333 236° Southwest 142 163 3,100  Level New York TRACON
03:46PM 41.3000 -73.8500 194° South 155 178 3,100  Level New York TRACON
03:47PM 41.2667 -73.8500 180° South 159 183 3,100  Level New York TRACON
03:48PM 41.2167 -73.8167 153° Southeast 167 192 3,100 -180 Level New York TRACON
03:49PM 41.1833 -73.7833 143° Southeast 165 190 2,800 -540 Descending New York TRACON
03:50PM 41.1500 -73.7667 159° South 135 155 2,100 -780 Descending New York TRACON
03:51PM 41.1167 -73.7333 143° Southeast 137 158 1,300 -720 Descending New York TRACON
03:52PM 41.0833 -73.7167 159° South 118 136 600 -720 Descending New York TRACON